sensor_id;sensor_type;location;lat;lon;timestamp;P1;durP1;ratioP1;P2;durP2;ratioP2
21000;SDS011;10658;50.920;12.238;2023-03-14T05:51:27;1.55;;;0.88;;
21000;SDS011;10658;50.920;12.238;2023-03-14T06:02:06;2.55;;;1.10;;
21000;SDS011;10658;50.920;12.238;2023-03-14T06:11:32;1.30;;;0.75;;
21000;SDS011;10658;50.920;12.238;2023-03-14T06:21:33;2.20;;;0.77;;
21000;SDS011;10658;50.920;12.238;2023-03-14T06:25:36;5.40;;;0.80;;
21000;SDS011;10658;50.920;12.238;2023-03-14T06:29:38;1.60;;;0.70;;
21000;SDS011;10658;50.920;12.238;2023-03-14T06:33:43;3.10;;;1.02;;
21000;SDS011;10658;50.920;12.238;2023-03-14T06:38:03;2.63;;;0.73;;
21000;SDS011;10658;50.920;12.238;2023-03-14T06:42:08;3.78;;;1.30;;
21000;SDS011;10658;50.920;12.238;2023-03-14T06:46:10;1.77;;;0.75;;
21000;SDS011;10658;50.920;12.238;2023-03-14T06:50:23;2.80;;;1.35;;
21000;SDS011;10658;50.920;12.238;2023-03-14T06:54:30;0.75;;;0.60;;
21000;SDS011;10658;50.920;12.238;2023-03-14T06:58:33;1.25;;;0.90;;
21000;SDS011;10658;50.920;12.238;2023-03-14T07:02:37;4.18;;;0.65;;
21000;SDS011;10658;50.920;12.238;2023-03-14T07:06:40;3.92;;;0.77;;
21000;SDS011;10658;50.920;12.238;2023-03-14T07:10:44;3.83;;;0.90;;
21000;SDS011;10658;50.920;12.238;2023-03-14T07:14:46;3.88;;;1.20;;
21000;SDS011;10658;50.920;12.238;2023-03-14T07:18:47;2.20;;;1.67;;
21000;SDS011;10658;50.920;12.238;2023-03-14T07:22:54;4.25;;;1.90;;
21000;SDS011;10658;50.920;12.238;2023-03-14T07:27:09;2.00;;;0.82;;
21000;SDS011;10658;50.920;12.238;2023-03-14T07:31:11;1.05;;;0.60;;
21000;SDS011;10658;50.920;12.238;2023-03-14T07:35:15;1.35;;;0.90;;
21000;SDS011;10658;50.920;12.238;2023-03-14T07:39:17;3.60;;;0.60;;
21000;SDS011;10658;50.920;12.238;2023-03-14T07:43:44;1.85;;;0.52;;
21000;SDS011;10658;50.920;12.238;2023-03-14T07:47:47;0.52;;;0.45;;
21000;SDS011;10658;50.920;12.238;2023-03-14T07:52:07;0.60;;;0.60;;
21000;SDS011;10658;50.920;12.238;2023-03-14T07:56:11;3.78;;;0.75;;
21000;SDS011;10658;50.920;12.238;2023-03-14T08:00:31;1.45;;;0.77;;
21000;SDS011;10658;50.920;12.238;2023-03-14T08:04:52;1.05;;;0.60;;
21000;SDS011;10658;50.920;12.238;2023-03-14T08:08:53;1.85;;;1.20;;
21000;SDS011;10658;50.920;12.238;2023-03-14T08:12:55;4.13;;;1.02;;
21000;SDS011;10658;50.920;12.238;2023-03-14T08:16:57;1.05;;;0.60;;
21000;SDS011;10658;50.920;12.238;2023-03-14T08:20:58;1.10;;;0.60;;
21000;SDS011;10658;50.920;12.238;2023-03-14T08:25:00;1.63;;;0.90;;
21000;SDS011;10658;50.920;12.238;2023-03-14T08:29:19;2.65;;;1.05;;
21000;SDS011;10658;50.920;12.238;2023-03-14T08:33:20;1.67;;;0.90;;
21000;SDS011;10658;50.920;12.238;2023-03-14T08:37:23;1.23;;;0.55;;
21000;SDS011;10658;50.920;12.238;2023-03-14T08:41:26;1.08;;;0.98;;
21000;SDS011;10658;50.920;12.238;2023-03-14T08:45:27;3.50;;;0.77;;
21000;SDS011;10658;50.920;12.238;2023-03-14T08:49:29;1.17;;;0.65;;
21000;SDS011;10658;50.920;12.238;2023-03-14T08:53:30;1.45;;;0.55;;
21000;SDS011;10658;50.920;12.238;2023-03-14T08:57:32;2.00;;;0.60;;
21000;SDS011;10658;50.920;12.238;2023-03-14T09:01:33;0.85;;;0.57;;
21000;SDS011;10658;50.920;12.238;2023-03-14T09:05:34;0.63;;;0.60;;
21000;SDS011;10658;50.920;12.238;2023-03-14T09:09:36;0.68;;;0.60;;
21000;SDS011;10658;50.920;12.238;2023-03-14T09:13:37;2.45;;;0.70;;
21000;SDS011;10658;50.920;12.238;2023-03-14T09:17:38;0.70;;;0.55;;
21000;SDS011;10658;50.920;12.238;2023-03-14T09:21:39;1.80;;;0.68;;
21000;SDS011;10658;50.920;12.238;2023-03-14T09:25:41;3.28;;;1.00;;
21000;SDS011;10658;50.920;12.238;2023-03-14T09:29:44;3.30;;;0.98;;
21000;SDS011;10658;50.920;12.238;2023-03-14T09:33:46;1.17;;;1.00;;
21000;SDS011;10658;50.920;12.238;2023-03-14T09:37:47;1.40;;;0.60;;
21000;SDS011;10658;50.920;12.238;2023-03-14T09:41:50;1.63;;;0.60;;
21000;SDS011;10658;50.920;12.238;2023-03-14T09:45:56;2.55;;;0.88;;
21000;SDS011;10658;50.920;12.238;2023-03-14T09:54:33;1.05;;;0.70;;
21000;SDS011;10658;50.920;12.238;2023-03-14T09:58:51;1.80;;;0.73;;
21000;SDS011;10658;50.920;12.238;2023-03-14T10:03:09;1.98;;;0.40;;
21000;SDS011;10658;50.920;12.238;2023-03-14T10:07:17;1.98;;;1.05;;
21000;SDS011;10658;50.920;12.238;2023-03-14T10:11:21;5.65;;;2.75;;
21000;SDS011;10658;50.920;12.238;2023-03-14T10:15:29;1.83;;;0.75;;
21000;SDS011;10658;50.920;12.238;2023-03-14T10:19:33;3.60;;;2.45;;
21000;SDS011;10658;50.920;12.238;2023-03-14T10:23:36;1.88;;;0.68;;
21000;SDS011;10658;50.920;12.238;2023-03-14T10:27:39;3.47;;;1.65;;
21000;SDS011;10658;50.920;12.238;2023-03-14T10:35:53;1.48;;;0.30;;
21000;SDS011;10658;50.920;12.238;2023-03-14T10:39:58;3.10;;;0.80;;
21000;SDS011;10658;50.920;12.238;2023-03-14T10:44:05;1.20;;;0.40;;
21000;SDS011;10658;50.920;12.238;2023-03-14T10:48:19;0.95;;;0.50;;
21000;SDS011;10658;50.920;12.238;2023-03-14T10:52:28;0.60;;;0.30;;
21000;SDS011;10658;50.920;12.238;2023-03-14T10:56:39;0.38;;;0.30;;
21000;SDS011;10658;50.920;12.238;2023-03-14T11:00:40;0.45;;;0.38;;
21000;SDS011;10658;50.920;12.238;2023-03-14T11:09:06;0.73;;;0.30;;
21000;SDS011;10658;50.920;12.238;2023-03-14T11:13:30;1.42;;;0.52;;
21000;SDS011;10658;50.920;12.238;2023-03-14T11:39:51;0.82;;;0.57;;
21000;SDS011;10658;50.920;12.238;2023-03-14T11:44:10;1.20;;;0.80;;
21000;SDS011;10658;50.920;12.238;2023-03-14T11:48:25;6.25;;;2.95;;
21000;SDS011;10658;50.920;12.238;2023-03-14T11:52:34;5.38;;;2.75;;
21000;SDS011;10658;50.920;12.238;2023-03-14T12:00:51;2.72;;;1.13;;
21000;SDS011;10658;50.920;12.238;2023-03-14T12:05:01;0.70;;;0.55;;
21000;SDS011;10658;50.920;12.238;2023-03-14T12:09:05;0.70;;;0.70;;
21000;SDS011;10658;50.920;12.238;2023-03-14T12:13:14;0.28;;;0.20;;
21000;SDS011;10658;50.920;12.238;2023-03-14T12:17:24;0.70;;;0.30;;
21000;SDS011;10658;50.920;12.238;2023-03-14T12:22:12;0.68;;;0.32;;
21000;SDS011;10658;50.920;12.238;2023-03-14T12:26:21;0.30;;;0.20;;
21000;SDS011;10658;50.920;12.238;2023-03-14T12:30:34;1.85;;;0.80;;
21000;SDS011;10658;50.920;12.238;2023-03-14T12:34:44;0.88;;;0.43;;
21000;SDS011;10658;50.920;12.238;2023-03-14T12:38:52;0.80;;;0.40;;
21000;SDS011;10658;50.920;12.238;2023-03-14T12:43:00;2.05;;;0.90;;
21000;SDS011;10658;50.920;12.238;2023-03-14T12:51:34;2.20;;;1.85;;
21000;SDS011;10658;50.920;12.238;2023-03-14T12:55:42;1.85;;;1.40;;
21000;SDS011;10658;50.920;12.238;2023-03-14T12:59:50;3.33;;;1.90;;
21000;SDS011;10658;50.920;12.238;2023-03-14T13:03:55;0.75;;;0.40;;
21000;SDS011;10658;50.920;12.238;2023-03-14T13:12:23;1.55;;;0.55;;
21000;SDS011;10658;50.920;12.238;2023-03-14T13:16:30;3.58;;;1.63;;
21000;SDS011;10658;50.920;12.238;2023-03-14T13:20:32;3.70;;;1.10;;
21000;SDS011;10658;50.920;12.238;2023-03-14T13:24:37;2.42;;;1.60;;
21000;SDS011;10658;50.920;12.238;2023-03-14T13:28:38;2.05;;;1.38;;
21000;SDS011;10658;50.920;12.238;2023-03-14T13:32:43;1.80;;;0.73;;
21000;SDS011;10658;50.920;12.238;2023-03-14T13:36:51;0.93;;;0.63;;
21000;SDS011;10658;50.920;12.238;2023-03-14T13:40:56;0.55;;;0.55;;
21000;SDS011;10658;50.920;12.238;2023-03-14T13:45:00;0.30;;;0.30;;
21000;SDS011;10658;50.920;12.238;2023-03-14T13:49:01;0.70;;;0.63;;
21000;SDS011;10658;50.920;12.238;2023-03-14T13:53:09;0.75;;;0.63;;
21000;SDS011;10658;50.920;12.238;2023-03-14T13:57:11;0.68;;;0.50;;
21000;SDS011;10658;50.920;12.238;2023-03-14T14:05:36;0.55;;;0.40;;
21000;SDS011;10658;50.920;12.238;2023-03-14T14:09:42;1.98;;;0.60;;
21000;SDS011;10658;50.920;12.238;2023-03-14T14:13:46;0.20;;;0.20;;
21000;SDS011;10658;50.920;12.238;2023-03-14T14:17:56;1.55;;;0.38;;
21000;SDS011;10658;50.920;12.238;2023-03-14T14:22:22;0.90;;;0.60;;
21000;SDS011;10658;50.920;12.238;2023-03-14T14:26:24;1.55;;;0.90;;
21000;SDS011;10658;50.920;12.238;2023-03-14T14:30:32;0.70;;;0.60;;
21000;SDS011;10658;50.920;12.238;2023-03-14T14:35:03;0.63;;;0.50;;
21000;SDS011;10658;50.920;12.238;2023-03-14T14:43:40;2.20;;;1.05;;
21000;SDS011;10658;50.920;12.238;2023-03-14T14:47:58;0.75;;;0.75;;
21000;SDS011;10658;50.920;12.238;2023-03-14T14:52:19;1.33;;;0.75;;
21000;SDS011;10658;50.920;12.238;2023-03-14T14:56:56;1.38;;;0.90;;
21000;SDS011;10658;50.920;12.238;2023-03-14T15:05:44;1.48;;;1.00;;
21000;SDS011;10658;50.920;12.238;2023-03-14T15:09:46;2.10;;;1.00;;
21000;SDS011;10658;50.920;12.238;2023-03-14T15:13:48;2.58;;;1.17;;
21000;SDS011;10658;50.920;12.238;2023-03-14T15:17:52;1.77;;;0.85;;
21000;SDS011;10658;50.920;12.238;2023-03-14T15:21:54;0.40;;;0.38;;
21000;SDS011;10658;50.920;12.238;2023-03-14T15:25:56;0.68;;;0.45;;
21000;SDS011;10658;50.920;12.238;2023-03-14T15:30:20;0.50;;;0.20;;
21000;SDS011;10658;50.920;12.238;2023-03-14T15:34:23;0.40;;;0.28;;
21000;SDS011;10658;50.920;12.238;2023-03-14T15:38:25;1.38;;;0.30;;
21000;SDS011;10658;50.920;12.238;2023-03-14T15:42:28;0.77;;;0.30;;
21000;SDS011;10658;50.920;12.238;2023-03-14T15:46:31;0.00;;;0.00;;
21000;SDS011;10658;50.920;12.238;2023-03-14T15:54:37;0.15;;;0.10;;
21000;SDS011;10658;50.920;12.238;2023-03-14T15:58:46;0.93;;;0.30;;
21000;SDS011;10658;50.920;12.238;2023-03-14T16:02:47;0.20;;;0.10;;
21000;SDS011;10658;50.920;12.238;2023-03-14T16:06:53;0.52;;;0.30;;
21000;SDS011;10658;50.920;12.238;2023-03-14T16:10:59;0.20;;;0.20;;
21000;SDS011;10658;50.920;12.238;2023-03-14T16:15:01;2.30;;;1.02;;
21000;SDS011;10658;50.920;12.238;2023-03-14T16:19:02;0.30;;;0.30;;
21000;SDS011;10658;50.920;12.238;2023-03-14T16:23:06;0.25;;;0.25;;
21000;SDS011;10658;50.920;12.238;2023-03-14T16:27:10;0.50;;;0.35;;
21000;SDS011;10658;50.920;12.238;2023-03-14T16:31:14;0.98;;;0.20;;
21000;SDS011;10658;50.920;12.238;2023-03-14T16:35:24;0.63;;;0.60;;
21000;SDS011;10658;50.920;12.238;2023-03-14T16:39:26;2.53;;;1.58;;
21000;SDS011;10658;50.920;12.238;2023-03-14T16:43:31;1.65;;;0.55;;
21000;SDS011;10658;50.920;12.238;2023-03-14T16:47:39;0.80;;;0.55;;
21000;SDS011;10658;50.920;12.238;2023-03-14T16:51:43;1.48;;;0.63;;
21000;SDS011;10658;50.920;12.238;2023-03-14T16:56:06;3.83;;;2.38;;
21000;SDS011;10658;50.920;12.238;2023-03-14T17:00:29;1.08;;;0.40;;
21000;SDS011;10658;50.920;12.238;2023-03-14T17:04:30;1.85;;;1.45;;
21000;SDS011;10658;50.920;12.238;2023-03-14T17:08:31;2.78;;;1.65;;
21000;SDS011;10658;50.920;12.238;2023-03-14T17:12:33;1.80;;;0.88;;
21000;SDS011;10658;50.920;12.238;2023-03-14T17:16:47;4.38;;;3.20;;
21000;SDS011;10658;50.920;12.238;2023-03-14T17:20:50;1.40;;;0.98;;
21000;SDS011;10658;50.920;12.238;2023-03-14T17:24:57;1.58;;;0.77;;
21000;SDS011;10658;50.920;12.238;2023-03-14T17:29:01;0.85;;;0.77;;
21000;SDS011;10658;50.920;12.238;2023-03-14T17:33:06;1.85;;;1.13;;
21000;SDS011;10658;50.920;12.238;2023-03-14T17:37:09;1.08;;;0.90;;
21000;SDS011;10658;50.920;12.238;2023-03-14T17:41:12;1.50;;;1.40;;
21000;SDS011;10658;50.920;12.238;2023-03-14T17:45:19;2.17;;;0.90;;
21000;SDS011;10658;50.920;12.238;2023-03-14T17:49:34;3.00;;;0.70;;
21000;SDS011;10658;50.920;12.238;2023-03-14T17:53:36;1.40;;;1.02;;
21000;SDS011;10658;50.920;12.238;2023-03-14T18:01:53;3.83;;;1.20;;
21000;SDS011;10658;50.920;12.238;2023-03-14T18:05:56;1.60;;;1.10;;
21000;SDS011;10658;50.920;12.238;2023-03-14T18:10:02;3.80;;;1.80;;
21000;SDS011;10658;50.920;12.238;2023-03-14T18:14:06;9.50;;;1.60;;
21000;SDS011;10658;50.920;12.238;2023-03-14T18:18:08;2.78;;;1.30;;
21000;SDS011;10658;50.920;12.238;2023-03-14T18:22:14;2.88;;;1.20;;
21000;SDS011;10658;50.920;12.238;2023-03-14T18:26:16;1.50;;;1.00;;
21000;SDS011;10658;50.920;12.238;2023-03-14T18:30:19;2.85;;;1.48;;
21000;SDS011;10658;50.920;12.238;2023-03-14T18:34:21;6.28;;;2.17;;
21000;SDS011;10658;50.920;12.238;2023-03-14T18:38:57;2.42;;;1.20;;
21000;SDS011;10658;50.920;12.238;2023-03-14T18:43:25;2.90;;;1.40;;
21000;SDS011;10658;50.920;12.238;2023-03-14T18:52:15;3.30;;;1.20;;
21000;SDS011;10658;50.920;12.238;2023-03-14T18:56:17;3.78;;;1.70;;
21000;SDS011;10658;50.920;12.238;2023-03-14T19:00:18;3.90;;;1.70;;
21000;SDS011;10658;50.920;12.238;2023-03-14T19:04:20;2.95;;;1.23;;
21000;SDS011;10658;50.920;12.238;2023-03-14T19:08:22;8.88;;;1.95;;
21000;SDS011;10658;50.920;12.238;2023-03-14T19:12:26;8.23;;;2.60;;
21000;SDS011;10658;50.920;12.238;2023-03-14T19:16:30;5.57;;;1.88;;
21000;SDS011;10658;50.920;12.238;2023-03-14T19:20:36;8.50;;;3.05;;
21000;SDS011;10658;50.920;12.238;2023-03-14T19:24:42;10.85;;;2.22;;
21000;SDS011;10658;50.920;12.238;2023-03-14T19:28:43;4.70;;;2.78;;
21000;SDS011;10658;50.920;12.238;2023-03-14T19:32:47;9.50;;;1.95;;
21000;SDS011;10658;50.920;12.238;2023-03-14T19:40:57;4.10;;;2.60;;
21000;SDS011;10658;50.920;12.238;2023-03-14T19:44:59;3.10;;;1.58;;
21000;SDS011;10658;50.920;12.238;2023-03-14T19:49:01;11.23;;;2.65;;
21000;SDS011;10658;50.920;12.238;2023-03-14T19:53:03;7.35;;;2.20;;
21000;SDS011;10658;50.920;12.238;2023-03-14T19:57:04;5.60;;;1.73;;
21000;SDS011;10658;50.920;12.238;2023-03-14T20:01:06;3.33;;;1.50;;
21000;SDS011;10658;50.920;12.238;2023-03-14T20:09:14;9.02;;;2.28;;
21000;SDS011;10658;50.920;12.238;2023-03-14T20:13:16;3.80;;;1.45;;
21000;SDS011;10658;50.920;12.238;2023-03-14T20:17:17;11.65;;;2.83;;
21000;SDS011;10658;50.920;12.238;2023-03-14T20:21:18;4.60;;;1.90;;
21000;SDS011;10658;50.920;12.238;2023-03-14T20:25:20;8.88;;;1.83;;
21000;SDS011;10658;50.920;12.238;2023-03-14T20:29:22;5.60;;;2.50;;
21000;SDS011;10658;50.920;12.238;2023-03-14T20:33:24;9.82;;;3.05;;
21000;SDS011;10658;50.920;12.238;2023-03-14T20:37:25;6.72;;;2.88;;
21000;SDS011;10658;50.920;12.238;2023-03-14T20:41:33;3.72;;;1.83;;
21000;SDS011;10658;50.920;12.238;2023-03-14T20:45:54;9.80;;;1.73;;
21000;SDS011;10658;50.920;12.238;2023-03-14T20:54:22;12.23;;;2.33;;
21000;SDS011;10658;50.920;12.238;2023-03-14T20:58:24;5.38;;;2.38;;
21000;SDS011;10658;50.920;12.238;2023-03-14T21:02:25;3.20;;;1.70;;
21000;SDS011;10658;50.920;12.238;2023-03-14T21:06:26;7.47;;;2.45;;
21000;SDS011;10658;50.920;12.238;2023-03-14T21:10:28;9.10;;;2.35;;
21000;SDS011;10658;50.920;12.238;2023-03-14T21:14:29;9.27;;;2.92;;
21000;SDS011;10658;50.920;12.238;2023-03-14T21:18:31;13.40;;;3.50;;
21000;SDS011;10658;50.920;12.238;2023-03-14T21:22:32;3.03;;;2.20;;
21000;SDS011;10658;50.920;12.238;2023-03-14T21:26:33;7.75;;;2.60;;
21000;SDS011;10658;50.920;12.238;2023-03-14T21:30:51;11.50;;;3.10;;
21000;SDS011;10658;50.920;12.238;2023-03-14T21:34:56;12.52;;;4.70;;
21000;SDS011;10658;50.920;12.238;2023-03-14T21:38:57;8.40;;;3.00;;
21000;SDS011;10658;50.920;12.238;2023-03-14T21:42:58;6.03;;;2.47;;
21000;SDS011;10658;50.920;12.238;2023-03-14T21:47:03;9.77;;;3.50;;
21000;SDS011;10658;50.920;12.238;2023-03-14T21:51:05;9.88;;;2.67;;
21000;SDS011;10658;50.920;12.238;2023-03-14T21:55:06;9.18;;;3.03;;
21000;SDS011;10658;50.920;12.238;2023-03-14T21:59:09;10.82;;;3.42;;
21000;SDS011;10658;50.920;12.238;2023-03-14T22:03:11;5.28;;;2.75;;
21000;SDS011;10658;50.920;12.238;2023-03-14T22:07:14;7.50;;;2.30;;
21000;SDS011;10658;50.920;12.238;2023-03-14T22:11:21;8.07;;;3.28;;
21000;SDS011;10658;50.920;12.238;2023-03-14T22:15:23;7.20;;;2.30;;
21000;SDS011;10658;50.920;12.238;2023-03-14T22:19:25;10.77;;;4.88;;
21000;SDS011;10658;50.920;12.238;2023-03-14T22:23:27;7.93;;;3.42;;
21000;SDS011;10658;50.920;12.238;2023-03-14T22:27:45;7.72;;;2.55;;
21000;SDS011;10658;50.920;12.238;2023-03-14T22:31:49;9.48;;;2.63;;
21000;SDS011;10658;50.920;12.238;2023-03-14T22:35:53;9.70;;;3.58;;
21000;SDS011;10658;50.920;12.238;2023-03-14T22:39:54;7.60;;;2.40;;
21000;SDS011;10658;50.920;12.238;2023-03-14T22:43:55;5.10;;;2.83;;
21000;SDS011;10658;50.920;12.238;2023-03-14T22:47:56;10.00;;;3.75;;
21000;SDS011;10658;50.920;12.238;2023-03-14T22:51:58;9.65;;;3.53;;
21000;SDS011;10658;50.920;12.238;2023-03-14T22:55:59;12.73;;;2.00;;
21000;SDS011;10658;50.920;12.238;2023-03-14T23:00:02;3.78;;;1.88;;
21000;SDS011;10658;50.920;12.238;2023-03-14T23:04:07;6.55;;;2.50;;
21000;SDS011;10658;50.920;12.238;2023-03-14T23:08:08;9.18;;;2.55;;
21000;SDS011;10658;50.920;12.238;2023-03-14T23:12:09;8.23;;;3.25;;
21000;SDS011;10658;50.920;12.238;2023-03-14T23:16:11;8.90;;;3.20;;
21000;SDS011;10658;50.920;12.238;2023-03-14T23:20:13;10.55;;;2.40;;
21000;SDS011;10658;50.920;12.238;2023-03-14T23:24:15;3.35;;;2.22;;
21000;SDS011;10658;50.920;12.238;2023-03-14T23:28:16;6.70;;;1.95;;
21000;SDS011;10658;50.920;12.238;2023-03-14T23:32:17;8.05;;;1.98;;
21000;SDS011;10658;50.920;12.238;2023-03-14T23:36:18;9.48;;;2.42;;
21000;SDS011;10658;50.920;12.238;2023-03-14T23:40:20;6.38;;;2.35;;
21000;SDS011;10658;50.920;12.238;2023-03-14T23:44:21;6.45;;;2.20;;
21000;SDS011;10658;50.920;12.238;2023-03-14T23:48:23;6.20;;;2.20;;
21000;SDS011;10658;50.920;12.238;2023-03-14T23:52:27;9.63;;;2.88;;
21000;SDS011;10658;50.920;12.238;2023-03-14T23:56:28;4.80;;;1.80;;
